Time;durP1;ratioP1;P1;durP2;ratioP2;P2;SDS_P1;SDS_P2;PMS_P1;PMS_P2;Temp;Humidity;BMP_temperature;BMP_pressure;BME280_temperature;BME280_humidity;BME280_pressure;Samples;Min_cycle;Max_cycle;Signal;HPM_P1;HPM_P2
2022/09/06 00:00:12;;;;;;;5.90;3.83;;;;;;;;;;4949707;28;20119;-84
2022/09/06 00:02:39;;;;;;;6.53;3.92;;;;;;;;;;4944540;29;20024;-83
2022/09/06 00:05:05;;;;;;;6.30;3.72;;;;;;;;;;4950954;28;20035;-84
2022/09/06 00:07:30;;;;;;;6.13;4.15;;;;;;;;;;4948949;28;20039;-84
2022/09/06 00:09:56;;;;;;;5.85;4.20;;;;;;;;;;4949500;29;20074;-85
2022/09/06 00:12:22;;;;;;;5.03;3.67;;;;;;;;;;4948772;28;20065;-85
2022/09/06 00:14:48;;;;;;;6.28;3.33;;;;;;;;;;4949023;28;20034;-85
2022/09/06 00:17:13;;;;;;;5.55;4.00;;;;;;;;;;4951717;28;20056;-85
2022/09/06 00:19:38;;;;;;;5.85;3.65;;;;;;;;;;4951549;28;20042;-85
2022/09/06 00:22:04;;;;;;;5.93;3.53;;;;;;;;;;4964276;28;20597;-85
2022/09/06 00:24:29;;;;;;;5.10;3.05;;;;;;;;;;4951619;28;20031;-84
2022/09/06 00:26:54;;;;;;;4.97;3.72;;;;;;;;;;4952071;28;20035;-83
2022/09/06 00:29:20;;;;;;;5.70;4.03;;;;;;;;;;4965797;28;20039;-85
2022/09/06 00:31:45;;;;;;;5.65;3.45;;;;;;;;;;4966869;28;20139;-84
2022/09/06 00:34:10;;;;;;;5.85;3.53;;;;;;;;;;4950859;28;20617;-84
2022/09/06 00:36:36;;;;;;;6.25;3.33;;;;;;;;;;4965774;28;20043;-83
2022/09/06 00:39:01;;;;;;;6.28;4.00;;;;;;;;;;4949146;28;20110;-83
2022/09/06 00:41:27;;;;;;;6.50;4.38;;;;;;;;;;4951569;28;20098;-85
2022/09/06 00:43:53;;;;;;;5.18;3.85;;;;;;;;;;4966026;28;20035;-84
2022/09/06 00:46:24;;;;;;;5.95;3.90;;;;;;;;;;4950023;28;20517;-84
2022/09/06 00:48:55;;;;;;;5.32;3.63;;;;;;;;;;4964443;28;20123;-84
2022/09/06 00:51:21;;;;;;;5.82;3.80;;;;;;;;;;4951228;28;20050;-84
2022/09/06 00:53:48;;;;;;;5.90;4.20;;;;;;;;;;4951745;28;20030;-83
2022/09/06 00:56:13;;;;;;;7.20;3.85;;;;;;;;;;4948960;28;20075;-83
2022/09/06 00:58:39;;;;;;;10.93;4.32;;;;;;;;;;4950550;28;20082;-84
2022/09/06 01:01:05;;;;;;;6.70;4.30;;;;;;;;;;4950186;28;20529;-85
2022/09/06 01:03:31;;;;;;;7.93;4.60;;;;;;;;;;4950609;28;20039;-84
2022/09/06 01:06:29;;;;;;;8.63;5.70;;;;;;;;;;4951302;29;20031;-85
2022/09/06 01:09:24;;;;;;;10.32;5.43;;;;;;;;;;4950219;28;20049;-83
2022/09/06 01:12:05;;;;;;;9.80;5.90;;;;;;;;;;4946576;29;20038;-84
2022/09/06 01:14:51;;;;;;;10.77;5.53;;;;;;;;;;4952027;28;20055;-84
2022/09/06 01:18:03;;;;;;;9.25;5.88;;;;;;;;;;4951828;28;20568;-84
2022/09/06 01:20:33;;;;;;;10.63;6.00;;;;;;;;;;4949995;29;20497;-83
2022/09/06 01:23:35;;;;;;;10.43;6.10;;;;;;;;;;4950773;28;20043;-83
2022/09/06 01:26:25;;;;;;;15.85;6.05;;;;;;;;;;4964642;28;20059;-83
2022/09/06 01:28:52;;;;;;;8.85;5.43;;;;;;;;;;4949762;28;20102;-84
2022/09/06 01:31:37;;;;;;;11.15;5.10;;;;;;;;;;4948700;28;20035;-83
2022/09/06 01:34:02;;;;;;;8.70;4.88;;;;;;;;;;4952011;28;20035;-83
2022/09/06 01:36:35;;;;;;;9.48;4.68;;;;;;;;;;4952758;28;20043;-83
2022/09/06 01:39:01;;;;;;;8.50;5.25;;;;;;;;;;4953188;28;20581;-83
2022/09/06 01:41:27;;;;;;;7.72;4.25;;;;;;;;;;4951566;28;20039;-83
2022/09/06 01:43:53;;;;;;;8.80;4.05;;;;;;;;;;4965813;28;20138;-83
2022/09/06 01:46:31;;;;;;;7.70;4.60;;;;;;;;;;4948791;28;20047;-84
2022/09/06 01:49:15;;;;;;;7.10;4.90;;;;;;;;;;4946825;28;20090;-83
2022/09/06 01:52:35;;;;;;;8.65;4.75;;;;;;;;;;4948494;28;20035;-84
2022/09/06 01:55:09;;;;;;;8.63;4.70;;;;;;;;;;4917686;29;20054;-83
2022/09/06 01:57:40;;;;;;;6.72;3.75;;;;;;;;;;4928868;29;20066;-84
2022/09/06 02:00:11;;;;;;;8.90;3.70;;;;;;;;;;4953705;28;20047;-83
2022/09/06 02:02:58;;;;;;;6.88;4.30;;;;;;;;;;4934884;29;20081;-85
2022/09/06 02:05:31;;;;;;;7.32;4.00;;;;;;;;;;4951622;28;20121;-85
2022/09/06 02:08:05;;;;;;;6.47;3.40;;;;;;;;;;4948032;28;20074;-83
2022/09/06 02:10:38;;;;;;;6.93;4.30;;;;;;;;;;4949503;28;20059;-83
2022/09/06 02:13:05;;;;;;;11.37;4.37;;;;;;;;;;4950846;28;20035;-84
2022/09/06 02:15:37;;;;;;;8.35;3.90;;;;;;;;;;4949360;28;20031;-83
2022/09/06 02:18:20;;;;;;;8.15;4.68;;;;;;;;;;4950390;28;20039;-84
2022/09/06 02:20:53;;;;;;;7.28;4.32;;;;;;;;;;4930931;29;20039;-83
2022/09/06 02:23:23;;;;;;;7.55;4.07;;;;;;;;;;4940620;29;20544;-84
2022/09/06 02:25:56;;;;;;;6.22;4.43;;;;;;;;;;4950931;28;20031;-84
2022/09/06 02:28:22;;;;;;;6.63;3.88;;;;;;;;;;4950346;28;20054;-84
2022/09/06 02:30:52;;;;;;;6.15;4.25;;;;;;;;;;4949704;28;20043;-84
2022/09/06 02:33:25;;;;;;;7.28;4.22;;;;;;;;;;4948600;28;20083;-84
2022/09/06 02:35:52;;;;;;;6.90;4.38;;;;;;;;;;4951280;28;20027;-84
2022/09/06 02:38:21;;;;;;;6.68;4.32;;;;;;;;;;4948095;28;20043;-83
2022/09/06 02:40:48;;;;;;;6.38;4.05;;;;;;;;;;4950604;28;20054;-84
2022/09/06 02:43:14;;;;;;;9.10;4.55;;;;;;;;;;4949610;28;20035;-83
2022/09/06 02:45:39;;;;;;;8.70;4.75;;;;;;;;;;4950063;28;20074;-86
2022/09/06 02:48:04;;;;;;;8.85;4.40;;;;;;;;;;4945678;29;20036;-83
2022/09/06 02:50:30;;;;;;;8.20;4.40;;;;;;;;;;4931465;29;20450;-84
2022/09/06 02:53:09;;;;;;;7.80;4.45;;;;;;;;;;4947519;28;20109;-83
2022/09/06 02:55:36;;;;;;;6.07;4.47;;;;;;;;;;4948828;28;20517;-84
2022/09/06 02:58:01;;;;;;;9.73;5.05;;;;;;;;;;4949413;28;20093;-84
2022/09/06 03:00:27;;;;;;;9.60;5.10;;;;;;;;;;4949423;28;20035;-83
2022/09/06 03:02:53;;;;;;;7.32;4.70;;;;;;;;;;4950824;28;20150;-85
2022/09/06 03:05:19;;;;;;;7.20;4.80;;;;;;;;;;4948793;28;20110;-85
2022/09/06 03:07:44;;;;;;;8.38;4.72;;;;;;;;;;4946499;28;20040;-84
2022/09/06 03:10:09;;;;;;;8.98;4.82;;;;;;;;;;4950091;28;20702;-84
2022/09/06 03:12:35;;;;;;;9.00;5.28;;;;;;;;;;4949894;28;20031;-85
2022/09/06 03:15:00;;;;;;;9.45;5.28;;;;;;;;;;4949894;28;20031;-84
2022/09/06 03:17:25;;;;;;;7.00;4.70;;;;;;;;;;4950537;28;20031;-85
2022/09/06 03:19:51;;;;;;;7.57;5.15;;;;;;;;;;4950760;28;20122;-84
2022/09/06 03:22:16;;;;;;;7.35;5.07;;;;;;;;;;4949760;28;20402;-85
2022/09/06 03:24:41;;;;;;;9.95;5.05;;;;;;;;;;4948335;28;20086;-85
2022/09/06 03:27:07;;;;;;;9.65;5.75;;;;;;;;;;4948962;28;20126;-84
2022/09/06 03:29:32;;;;;;;7.95;5.15;;;;;;;;;;4950580;28;20047;-83
2022/09/06 03:31:57;;;;;;;7.88;4.93;;;;;;;;;;4950316;28;20090;-85
2022/09/06 03:34:23;;;;;;;9.70;5.20;;;;;;;;;;4950413;28;20106;-84
2022/09/06 03:36:48;;;;;;;10.88;5.45;;;;;;;;;;4950421;28;20034;-84
2022/09/06 03:39:13;;;;;;;12.82;6.07;;;;;;;;;;4949002;28;20023;-83
2022/09/06 03:41:39;;;;;;;8.55;5.20;;;;;;;;;;4950667;28;20098;-84
2022/09/06 03:44:04;;;;;;;8.60;5.18;;;;;;;;;;4948182;28;20035;-83
2022/09/06 03:46:29;;;;;;;7.88;5.07;;;;;;;;;;4949837;28;20034;-84
2022/09/06 03:48:58;;;;;;;8.27;4.93;;;;;;;;;;4930192;28;20044;-84
2022/09/06 03:51:24;;;;;;;8.25;5.10;;;;;;;;;;4931581;28;20059;-84
2022/09/06 03:53:49;;;;;;;8.50;4.95;;;;;;;;;;4950745;28;20035;-84
2022/09/06 03:56:15;;;;;;;8.23;4.93;;;;;;;;;;4953533;28;20046;-83
2022/09/06 03:58:40;;;;;;;7.97;4.47;;;;;;;;;;4951547;28;20027;-85
2022/09/06 04:01:08;;;;;;;9.05;5.25;;;;;;;;;;4949742;28;20051;-84
2022/09/06 04:03:34;;;;;;;10.23;5.40;;;;;;;;;;4934616;28;20024;-84
2022/09/06 04:06:00;;;;;;;10.40;5.43;;;;;;;;;;4933967;28;20027;-85
2022/09/06 04:08:25;;;;;;;9.23;5.68;;;;;;;;;;4947705;29;20070;-83
2022/09/06 04:10:55;;;;;;;7.50;4.70;;;;;;;;;;4951886;28;20444;-84
2022/09/06 04:13:22;;;;;;;7.18;4.70;;;;;;;;;;4952169;28;20039;-84
2022/09/06 04:15:48;;;;;;;10.38;4.90;;;;;;;;;;4949673;28;20031;-84
2022/09/06 04:18:14;;;;;;;8.70;4.90;;;;;;;;;;4951679;28;20023;-84
2022/09/06 04:20:40;;;;;;;10.70;4.78;;;;;;;;;;4968396;28;20019;-85
2022/09/06 04:23:06;;;;;;;6.30;4.65;;;;;;;;;;4952748;28;20037;-85
2022/09/06 04:25:31;;;;;;;8.73;5.22;;;;;;;;;;4951511;29;20039;-84
2022/09/06 04:27:57;;;;;;;9.93;5.40;;;;;;;;;;4953108;28;20482;-84
2022/09/06 04:30:22;;;;;;;7.93;4.93;;;;;;;;;;4950833;28;20031;-85
2022/09/06 04:32:47;;;;;;;7.18;4.85;;;;;;;;;;4953650;28;20026;-85
2022/09/06 04:35:13;;;;;;;7.75;4.30;;;;;;;;;;4943691;28;20031;-85
2022/09/06 04:37:39;;;;;;;9.38;5.35;;;;;;;;;;4952610;28;20042;-85
2022/09/06 04:40:05;;;;;;;7.80;4.78;;;;;;;;;;4952054;28;20530;-85
2022/09/06 04:42:31;;;;;;;7.50;4.60;;;;;;;;;;4952802;28;20047;-85
2022/09/06 04:44:56;;;;;;;8.85;4.78;;;;;;;;;;4952168;28;20069;-85
2022/09/06 04:47:22;;;;;;;7.57;4.75;;;;;;;;;;4950703;28;20047;-85
2022/09/06 04:49:48;;;;;;;14.48;5.50;;;;;;;;;;4941117;28;20048;-85
2022/09/06 04:52:13;;;;;;;9.82;5.88;;;;;;;;;;4947464;28;20043;-84
2022/09/06 04:54:39;;;;;;;14.00;7.18;;;;;;;;;;4950791;28;20063;-85
2022/09/06 04:57:04;;;;;;;15.48;7.25;;;;;;;;;;4948630;28;20090;-84
2022/09/06 04:59:30;;;;;;;19.38;8.05;;;;;;;;;;4966226;28;20027;-83
2022/09/06 05:01:55;;;;;;;20.58;8.52;;;;;;;;;;4953840;28;20059;-84
2022/09/06 05:04:21;;;;;;;20.80;8.82;;;;;;;;;;4960180;28;20027;-85
2022/09/06 05:06:46;;;;;;;18.25;8.10;;;;;;;;;;4947130;28;20086;-86
2022/09/06 05:09:11;;;;;;;18.08;8.40;;;;;;;;;;4949763;28;20023;-85
2022/09/06 05:11:37;;;;;;;19.70;8.82;;;;;;;;;;4947184;29;20031;-84
2022/09/06 05:14:02;;;;;;;20.20;8.57;;;;;;;;;;4949907;29;20036;-85
2022/09/06 05:16:27;;;;;;;22.20;8.20;;;;;;;;;;4950460;28;20034;-85
2022/09/06 05:18:53;;;;;;;18.40;8.32;;;;;;;;;;4951883;28;20035;-84
2022/09/06 05:21:18;;;;;;;21.67;8.48;;;;;;;;;;4948740;28;20043;-85
2022/09/06 05:23:44;;;;;;;21.10;8.55;;;;;;;;;;4951323;28;20021;-85
2022/09/06 05:26:09;;;;;;;21.02;8.98;;;;;;;;;;4952581;28;20031;-85
2022/09/06 05:28:35;;;;;;;28.70;9.93;;;;;;;;;;4950246;28;20107;-85
2022/09/06 05:31:08;;;;;;;26.80;9.95;;;;;;;;;;4950362;28;20038;-86
2022/09/06 05:33:34;;;;;;;23.58;9.40;;;;;;;;;;4951560;28;20031;-85
2022/09/06 05:35:59;;;;;;;23.45;8.63;;;;;;;;;;4951692;28;20024;-84
2022/09/06 05:38:24;;;;;;;17.17;8.45;;;;;;;;;;4964260;28;20029;-85
2022/09/06 05:40:50;;;;;;;22.58;8.45;;;;;;;;;;4951901;28;20067;-84
2022/09/06 05:43:15;;;;;;;15.93;6.90;;;;;;;;;;4941322;28;20066;-84
2022/09/06 05:45:41;;;;;;;15.30;7.60;;;;;;;;;;4950416;28;20042;-85
2022/09/06 05:48:07;;;;;;;14.68;6.32;;;;;;;;;;4965637;28;20055;-85
2022/09/06 05:50:33;;;;;;;13.52;6.15;;;;;;;;;;4966505;28;20724;-84
2022/09/06 05:52:58;;;;;;;12.68;5.80;;;;;;;;;;4949917;28;20035;-85
2022/09/06 05:55:23;;;;;;;10.07;5.72;;;;;;;;;;4947316;29;20039;-85
2022/09/06 05:57:49;;;;;;;12.65;6.30;;;;;;;;;;4949508;28;20074;-87
2022/09/06 06:00:14;;;;;;;12.35;6.07;;;;;;;;;;4948124;28;20047;-85
2022/09/06 06:02:39;;;;;;;13.93;5.72;;;;;;;;;;4949264;28;20098;-85
2022/09/06 06:05:06;;;;;;;11.52;5.47;;;;;;;;;;4949006;28;20065;-86
2022/09/06 06:07:31;;;;;;;9.25;4.60;;;;;;;;;;4948976;29;20062;-88
2022/09/06 06:09:56;;;;;;;6.60;3.88;;;;;;;;;;4949517;28;20059;-86
2022/09/06 06:12:22;;;;;;;5.45;3.42;;;;;;;;;;4948728;28;20039;-87
2022/09/06 06:14:47;;;;;;;5.72;3.22;;;;;;;;;;4946760;29;20019;-87
2022/09/06 06:17:12;;;;;;;5.53;2.83;;;;;;;;;;4957866;28;20077;-87
2022/09/06 06:19:38;;;;;;;4.10;2.70;;;;;;;;;;4948104;28;20110;-87
2022/09/06 06:22:04;;;;;;;5.47;2.80;;;;;;;;;;4951223;28;20035;-88
2022/09/06 06:24:29;;;;;;;3.85;2.53;;;;;;;;;;4951623;28;20042;-89
2022/09/06 06:26:55;;;;;;;4.68;2.78;;;;;;;;;;4953315;28;20112;-89
2022/09/06 06:29:20;;;;;;;7.55;2.85;;;;;;;;;;4949910;28;20031;-88
2022/09/06 06:31:45;;;;;;;5.85;3.15;;;;;;;;;;4950948;28;20039;-88
2022/09/06 06:34:10;;;;;;;4.75;2.85;;;;;;;;;;4951354;28;20035;-90
2022/09/06 06:36:36;;;;;;;5.10;3.10;;;;;;;;;;4952101;28;20101;-89
2022/09/06 06:39:04;;;;;;;6.10;2.90;;;;;;;;;;4951942;28;20122;-89
2022/09/06 06:41:31;;;;;;;3.90;2.80;;;;;;;;;;4964173;28;20023;-90
2022/09/06 06:44:02;;;;;;;6.00;3.17;;;;;;;;;;4962677;28;20031;-90
2022/09/06 06:46:30;;;;;;;5.75;2.65;;;;;;;;;;4943104;28;20039;-90
2022/09/06 06:48:55;;;;;;;4.93;2.47;;;;;;;;;;4963367;28;20418;-89
2022/09/06 06:51:25;;;;;;;4.70;2.92;;;;;;;;;;4958729;28;20031;-89
2022/09/06 06:53:51;;;;;;;5.03;3.00;;;;;;;;;;4948911;28;20442;-90
2022/09/06 06:56:18;;;;;;;4.75;2.50;;;;;;;;;;4950911;28;20043;-90
2022/09/06 06:58:46;;;;;;;3.92;2.80;;;;;;;;;;4952494;28;20059;-88
2022/09/06 07:01:12;;;;;;;4.25;2.67;;;;;;;;;;4933987;28;20043;-89
2022/09/06 07:03:38;;;;;;;3.67;2.58;;;;;;;;;;4944096;28;20043;-89
2022/09/06 07:06:04;;;;;;;7.07;2.65;;;;;;;;;;4949892;28;20027;-88
2022/09/06 07:08:29;;;;;;;7.50;2.70;;;;;;;;;;4951646;29;20030;-88
2022/09/06 07:10:54;;;;;;;8.93;2.60;;;;;;;;;;4968634;28;20402;-88
2022/09/06 07:13:20;;;;;;;3.58;2.40;;;;;;;;;;4964932;28;20039;-88
2022/09/06 07:15:45;;;;;;;6.38;2.75;;;;;;;;;;4952159;28;20039;-88
2022/09/06 07:18:11;;;;;;;5.15;2.70;;;;;;;;;;4950191;28;20086;-87
2022/09/06 07:20:36;;;;;;;7.80;3.33;;;;;;;;;;4950836;29;20039;-89
2022/09/06 07:23:07;;;;;;;6.28;3.80;;;;;;;;;;4966457;28;20058;-89
2022/09/06 07:25:32;;;;;;;7.80;3.85;;;;;;;;;;4948484;29;20039;-83
2022/09/06 07:28:05;;;;;;;9.98;5.63;;;;;;;;;;4949815;28;20042;-83
2022/09/06 07:30:32;;;;;;;8.07;5.18;;;;;;;;;;4966611;28;20426;-84
2022/09/06 07:32:59;;;;;;;8.40;5.28;;;;;;;;;;4938791;28;20035;-84
2022/09/06 07:35:25;;;;;;;6.40;4.47;;;;;;;;;;4939412;28;20634;-84
2022/09/06 07:37:55;;;;;;;8.73;4.20;;;;;;;;;;4938730;28;20077;-84
2022/09/06 07:40:20;;;;;;;11.00;4.97;;;;;;;;;;4946991;28;20098;-85
2022/09/06 07:42:46;;;;;;;12.68;4.70;;;;;;;;;;4952892;28;20031;-84
2022/09/06 07:45:11;;;;;;;3.83;2.95;;;;;;;;;;4958488;28;20027;-84
2022/09/06 07:47:37;;;;;;;5.60;3.17;;;;;;;;;;4947749;28;20035;-84
2022/09/06 07:50:05;;;;;;;6.85;3.60;;;;;;;;;;4952292;28;20039;-83
2022/09/06 07:52:30;;;;;;;7.57;3.10;;;;;;;;;;4946531;28;20059;-84
2022/09/06 07:54:56;;;;;;;4.68;3.58;;;;;;;;;;4950318;28;20065;-83
2022/09/06 07:57:22;;;;;;;4.97;3.15;;;;;;;;;;4953361;28;20090;-83
2022/09/06 07:59:48;;;;;;;10.68;4.43;;;;;;;;;;4952833;28;20034;-83
2022/09/06 08:02:13;;;;;;;6.68;4.10;;;;;;;;;;4949775;28;20047;-84
2022/09/06 08:04:40;;;;;;;7.32;4.20;;;;;;;;;;4952715;28;20118;-84
2022/09/06 08:07:06;;;;;;;7.35;3.80;;;;;;;;;;4950953;28;20034;-85
2022/09/06 08:09:32;;;;;;;4.85;2.58;;;;;;;;;;4949210;28;20093;-84
2022/09/06 08:11:57;;;;;;;5.15;3.00;;;;;;;;;;4950896;28;20035;-83
2022/09/06 08:14:23;;;;;;;6.10;3.17;;;;;;;;;;4945252;28;20804;-83
2022/09/06 08:16:49;;;;;;;5.95;3.33;;;;;;;;;;4954856;28;20482;-83
2022/09/06 08:19:15;;;;;;;6.38;2.97;;;;;;;;;;4946247;28;20047;-84
2022/09/06 08:21:43;;;;;;;6.50;3.17;;;;;;;;;;4963052;28;20548;-84
2022/09/06 08:24:11;;;;;;;4.63;3.33;;;;;;;;;;4948550;28;20400;-84
2022/09/06 08:26:43;;;;;;;5.63;3.35;;;;;;;;;;4950184;28;20027;-83
2022/09/06 08:29:10;;;;;;;6.20;3.40;;;;;;;;;;4946310;28;20038;-83
2022/09/06 08:31:39;;;;;;;5.38;3.70;;;;;;;;;;4948435;28;20093;-83
2022/09/06 08:34:05;;;;;;;6.68;3.70;;;;;;;;;;4949528;28;20035;-83
2022/09/06 08:36:31;;;;;;;9.85;4.00;;;;;;;;;;4944812;28;20077;-83
2022/09/06 08:38:58;;;;;;;5.85;3.95;;;;;;;;;;4959457;28;20031;-83
2022/09/06 08:41:52;;;;;;;6.45;3.45;;;;;;;;;;4946333;28;20425;-83
2022/09/06 08:44:38;;;;;;;8.82;3.80;;;;;;;;;;4938408;28;20051;-83
2022/09/06 08:47:09;;;;;;;8.48;4.05;;;;;;;;;;4944464;28;20126;-84
2022/09/06 08:49:44;;;;;;;7.18;4.20;;;;;;;;;;4951838;28;20042;-83
2022/09/06 08:52:24;;;;;;;8.35;5.00;;;;;;;;;;4946534;28;20028;-83
2022/09/06 08:54:58;;;;;;;5.88;3.65;;;;;;;;;;4949573;28;20065;-86
2022/09/06 08:57:42;;;;;;;7.72;4.45;;;;;;;;;;4954008;28;20047;-84
2022/09/06 09:00:11;;;;;;;8.35;4.18;;;;;;;;;;4948288;28;20058;-84
2022/09/06 09:02:45;;;;;;;10.13;5.18;;;;;;;;;;4943683;28;20028;-85
2022/09/06 09:05:41;;;;;;;6.18;3.58;;;;;;;;;;4947209;28;20031;-83
2022/09/06 09:08:27;;;;;;;4.65;2.90;;;;;;;;;;4930720;29;20047;-83
2022/09/06 09:11:05;;;;;;;6.05;3.53;;;;;;;;;;4950222;28;20122;-84
2022/09/06 09:13:46;;;;;;;7.68;4.22;;;;;;;;;;4950511;28;20031;-84
2022/09/06 09:16:12;;;;;;;7.82;4.70;;;;;;;;;;4949714;29;20118;-83
2022/09/06 09:18:42;;;;;;;6.65;3.88;;;;;;;;;;4949949;28;20618;-85
2022/09/06 09:21:09;;;;;;;7.15;3.75;;;;;;;;;;4966804;28;20549;-85
2022/09/06 09:23:35;;;;;;;6.60;3.97;;;;;;;;;;4952389;28;20054;-86
2022/09/06 09:26:09;;;;;;;6.00;2.97;;;;;;;;;;4951860;28;20039;-83
2022/09/06 09:28:34;;;;;;;8.35;3.10;;;;;;;;;;4949825;28;20414;-85
2022/09/06 09:31:00;;;;;;;6.68;3.28;;;;;;;;;;4966601;28;20182;-83
2022/09/06 09:33:34;;;;;;;6.07;3.20;;;;;;;;;;4949180;28;20105;-84
2022/09/06 09:36:04;;;;;;;4.53;3.08;;;;;;;;;;4950639;28;20039;-83
2022/09/06 09:38:36;;;;;;;6.07;3.40;;;;;;;;;;4950470;29;20019;-84
2022/09/06 09:41:05;;;;;;;4.20;2.77;;;;;;;;;;4951373;28;20035;-83
2022/09/06 09:43:48;;;;;;;7.60;2.95;;;;;;;;;;4949591;28;20279;-84
2022/09/06 09:46:31;;;;;;;6.18;3.63;;;;;;;;;;4951097;28;20027;-83
2022/09/06 09:49:27;;;;;;;5.53;3.42;;;;;;;;;;4949840;29;20035;-84
2022/09/06 09:52:13;;;;;;;3.95;3.05;;;;;;;;;;4950931;28;20143;-85
2022/09/06 09:54:43;;;;;;;6.03;3.20;;;;;;;;;;4950762;28;20035;-84
2022/09/06 09:57:18;;;;;;;5.68;3.08;;;;;;;;;;4949832;28;20109;-84
2022/09/06 09:59:49;;;;;;;14.43;5.60;;;;;;;;;;4950203;28;20019;-85
2022/09/06 10:02:20;;;;;;;9.32;4.00;;;;;;;;;;4949197;28;20102;-84
2022/09/06 10:04:51;;;;;;;6.78;3.58;;;;;;;;;;4959671;28;20074;-84
2022/09/06 10:07:21;;;;;;;5.55;3.15;;;;;;;;;;4950784;28;20035;-84
2022/09/06 10:09:55;;;;;;;6.78;3.70;;;;;;;;;;4948537;28;20035;-84
2022/09/06 10:12:30;;;;;;;6.43;3.10;;;;;;;;;;4949611;28;20039;-84
2022/09/06 10:14:56;;;;;;;4.28;3.17;;;;;;;;;;4951707;28;20035;-84
2022/09/06 10:17:34;;;;;;;4.25;2.85;;;;;;;;;;4950685;28;20035;-85
2022/09/06 10:20:10;;;;;;;5.50;2.95;;;;;;;;;;4949400;28;20035;-84
2022/09/06 10:22:41;;;;;;;7.03;3.13;;;;;;;;;;4951220;28;20151;-84
2022/09/06 10:25:13;;;;;;;6.18;2.83;;;;;;;;;;4948985;28;20043;-83
2022/09/06 10:28:03;;;;;;;5.38;3.15;;;;;;;;;;4951080;28;20039;-84
2022/09/06 10:30:32;;;;;;;4.80;2.50;;;;;;;;;;4950683;28;20585;-83
2022/09/06 10:33:29;;;;;;;4.43;2.60;;;;;;;;;;4949656;29;20032;-84
2022/09/06 10:35:57;;;;;;;4.72;2.65;;;;;;;;;;4905192;29;20055;-83
2022/09/06 10:38:25;;;;;;;7.53;2.80;;;;;;;;;;4940797;28;20046;-83
2022/09/06 10:41:09;;;;;;;4.25;2.50;;;;;;;;;;4949816;28;20532;-83
2022/09/06 10:43:49;;;;;;;;;;;;;;;;;;4949083;28;20043;-85
2022/09/06 10:46:20;;;;;;;3.15;2.17;;;;;;;;;;4950513;28;19952;-84
2022/09/06 10:48:46;;;;;;;4.25;2.30;;;;;;;;;;4938987;28;20039;-83
2022/09/06 10:51:27;;;;;;;5.55;2.20;;;;;;;;;;4950196;28;20049;-83
2022/09/06 10:54:05;;;;;;;3.88;2.35;;;;;;;;;;4931952;28;20031;-88
2022/09/06 10:56:42;;;;;;;3.30;2.05;;;;;;;;;;4948215;28;20055;-85
2022/09/06 10:59:30;;;;;;;2.70;2.10;;;;;;;;;;4944062;28;20144;-85
2022/09/06 11:02:23;;;;;;;4.50;2.25;;;;;;;;;;4958157;28;20043;-85
2022/09/06 11:04:52;;;;;;;4.07;2.30;;;;;;;;;;4959926;28;20058;-84
2022/09/06 11:07:27;;;;;;;4.25;2.60;;;;;;;;;;4950280;28;20042;-84
2022/09/06 11:10:18;;;;;;;3.65;2.78;;;;;;;;;;4951090;28;20054;-84
2022/09/06 11:12:48;;;;;;;4.63;2.95;;;;;;;;;;4942534;28;20062;-83
2022/09/06 11:15:15;;;;;;;5.95;2.75;;;;;;;;;;4948672;28;20043;-83
2022/09/06 11:17:46;;;;;;;4.18;2.97;;;;;;;;;;4950877;28;20512;-83
2022/09/06 11:20:36;;;;;;;4.72;3.28;;;;;;;;;;4951581;28;20639;-84
2022/09/06 11:23:26;;;;;;;5.78;3.17;;;;;;;;;;4952315;28;20102;-83
2022/09/06 11:25:51;;;;;;;4.50;2.40;;;;;;;;;;4953891;28;20043;-84
2022/09/06 11:28:27;;;;;;;4.05;2.28;;;;;;;;;;4950625;28;20054;-84
2022/09/06 11:30:56;;;;;;;3.42;2.05;;;;;;;;;;4934185;29;20126;-83
2022/09/06 11:33:27;;;;;;;4.38;2.03;;;;;;;;;;4944539;28;20051;-84
2022/09/06 11:36:13;;;;;;;7.57;2.72;;;;;;;;;;4949038;28;20031;-83
2022/09/06 11:38:39;;;;;;;5.90;2.25;;;;;;;;;;4952132;29;20144;-84
2022/09/06 11:41:14;;;;;;;6.25;2.50;;;;;;;;;;4952898;28;20051;-84
2022/09/06 11:43:52;;;;;;;3.92;1.90;;;;;;;;;;4950958;28;20035;-84
2022/09/06 11:46:32;;;;;;;3.40;2.05;;;;;;;;;;4952680;28;20035;-83
2022/09/06 11:49:13;;;;;;;6.28;2.38;;;;;;;;;;4958882;28;20603;-85
2022/09/06 11:51:43;;;;;;;4.15;2.28;;;;;;;;;;4958452;28;20054;-83
2022/09/06 11:54:18;;;;;;;4.22;2.30;;;;;;;;;;4948005;28;20677;-83
2022/09/06 11:57:07;;;;;;;6.60;2.53;;;;;;;;;;4948971;28;20512;-84
2022/09/06 11:59:42;;;;;;;3.45;2.00;;;;;;;;;;4935752;28;20416;-83
2022/09/06 12:02:40;;;;;;;6.03;2.17;;;;;;;;;;4946214;28;20134;-84
2022/09/06 12:05:08;;;;;;;4.07;2.10;;;;;;;;;;4949671;28;20070;-85
2022/09/06 12:07:54;;;;;;;2.75;1.77;;;;;;;;;;4948631;28;20039;-83
2022/09/06 12:10:29;;;;;;;7.43;1.60;;;;;;;;;;4947363;28;20038;-85
2022/09/06 12:12:54;;;;;;;3.53;1.80;;;;;;;;;;4951153;28;20035;-85
2022/09/06 12:15:25;;;;;;;4.70;1.88;;;;;;;;;;4942433;28;20531;-85
2022/09/06 12:17:51;;;;;;;4.30;2.08;;;;;;;;;;4962873;28;20404;-87
2022/09/06 12:20:47;;;;;;;4.57;1.75;;;;;;;;;;4944170;28;20054;-84
2022/09/06 12:23:35;;;;;;;2.83;1.80;;;;;;;;;;4958291;28;20036;-85
2022/09/06 12:26:05;;;;;;;2.85;2.00;;;;;;;;;;4945040;29;20036;-84
2022/09/06 12:28:33;;;;;;;2.47;1.70;;;;;;;;;;4949665;28;20118;-85
2022/09/06 12:31:00;;;;;;;2.90;1.70;;;;;;;;;;4952197;28;20123;-85
2022/09/06 12:33:35;;;;;;;3.53;1.95;;;;;;;;;;4945174;28;20047;-85
2022/09/06 12:36:29;;;;;;;2.53;2.00;;;;;;;;;;4942985;28;20122;-85
2022/09/06 12:38:57;;;;;;;3.92;2.00;;;;;;;;;;4942335;29;20015;-84
2022/09/06 12:41:24;;;;;;;3.10;1.70;;;;;;;;;;4966221;28;20198;-85
2022/09/06 12:43:50;;;;;;;4.90;1.88;;;;;;;;;;4948035;28;20126;-84
2022/09/06 12:46:16;;;;;;;3.63;1.55;;;;;;;;;;4951932;28;20182;-86
2022/09/06 12:48:43;;;;;;;2.60;1.77;;;;;;;;;;4908985;28;20047;-83
2022/09/06 12:51:18;;;;;;;2.60;1.65;;;;;;;;;;4940806;28;20042;-85
2022/09/06 12:53:55;;;;;;;2.67;1.50;;;;;;;;;;4955659;28;20025;-84
2022/09/06 12:56:22;;;;;;;2.63;1.63;;;;;;;;;;4948806;28;20653;-86
2022/09/06 12:58:48;;;;;;;2.78;1.63;;;;;;;;;;4949448;28;20023;-84
2022/09/06 13:01:31;;;;;;;8.20;2.00;;;;;;;;;;4946271;28;20087;-84
2022/09/06 13:04:03;;;;;;;2.75;1.60;;;;;;;;;;4949598;28;20415;-84
2022/09/06 13:06:35;;;;;;;3.03;1.70;;;;;;;;;;4976247;28;20057;-84
2022/09/06 13:09:01;;;;;;;2.72;1.77;;;;;;;;;;4948807;28;20014;-84
2022/09/06 13:11:34;;;;;;;5.43;1.67;;;;;;;;;;4948581;28;20033;-85
2022/09/06 13:14:08;;;;;;;2.47;1.73;;;;;;;;;;4944925;28;20122;-84
2022/09/06 13:16:55;;;;;;;3.00;1.52;;;;;;;;;;4934650;28;20070;-85
2022/09/06 13:19:35;;;;;;;2.72;1.55;;;;;;;;;;4938574;28;20039;-85
2022/09/06 13:22:04;;;;;;;2.10;1.60;;;;;;;;;;4956860;28;20525;-85
2022/09/06 13:24:32;;;;;;;2.25;1.70;;;;;;;;;;4942134;28;20550;-85
2022/09/06 13:26:57;;;;;;;1.73;1.45;;;;;;;;;;4952762;28;20472;-85
2022/09/06 13:29:29;;;;;;;2.78;1.40;;;;;;;;;;4948789;28;20042;-85
2022/09/06 13:31:56;;;;;;;1.85;1.60;;;;;;;;;;4937280;28;20035;-85
2022/09/06 13:34:31;;;;;;;1.90;1.60;;;;;;;;;;4931075;28;20629;-85
2022/09/06 13:37:03;;;;;;;1.90;1.45;;;;;;;;;;4941795;28;20046;-85
2022/09/06 13:39:37;;;;;;;7.07;1.77;;;;;;;;;;4944326;28;20031;-85
2022/09/06 13:42:09;;;;;;;2.75;1.40;;;;;;;;;;4945190;28;20074;-86
2022/09/06 13:44:36;;;;;;;2.92;1.83;;;;;;;;;;4930339;28;20019;-85
2022/09/06 13:47:02;;;;;;;2.17;1.45;;;;;;;;;;4946594;28;20047;-85
2022/09/06 13:49:28;;;;;;;2.83;1.58;;;;;;;;;;4953634;28;20039;-85
2022/09/06 13:52:00;;;;;;;2.10;1.48;;;;;;;;;;4938898;28;20118;-87
2022/09/06 13:54:26;;;;;;;3.63;1.52;;;;;;;;;;4933163;28;20537;-87
2022/09/06 13:56:52;;;;;;;3.80;1.50;;;;;;;;;;4944804;28;20031;-85
2022/09/06 13:59:18;;;;;;;3.35;1.48;;;;;;;;;;4942088;28;20027;-85
2022/09/06 14:01:45;;;;;;;2.08;1.50;;;;;;;;;;4957006;28;20151;-85
2022/09/06 14:04:20;;;;;;;1.80;1.50;;;;;;;;;;4947171;28;20035;-88
2022/09/06 14:06:46;;;;;;;3.50;1.60;;;;;;;;;;4932058;28;20075;-87
2022/09/06 14:09:11;;;;;;;1.50;1.40;;;;;;;;;;4948986;28;20034;-85
2022/09/06 14:11:37;;;;;;;2.50;1.60;;;;;;;;;;4940944;28;20036;-86
2022/09/06 14:14:04;;;;;;;2.25;1.67;;;;;;;;;;4943648;28;20039;-86
2022/09/06 14:16:36;;;;;;;3.20;1.50;;;;;;;;;;4938370;28;20042;-91
2022/09/06 14:19:20;;;;;;;2.45;1.42;;;;;;;;;;4941977;28;20045;-91
2022/09/06 14:21:46;;;;;;;2.72;1.42;;;;;;;;;;4942242;28;20074;-89
2022/09/06 14:24:11;;;;;;;4.70;1.75;;;;;;;;;;4941357;28;20082;-88
2022/09/06 14:26:37;;;;;;;2.50;1.70;;;;;;;;;;4939208;28;20035;-88
2022/09/06 14:29:03;;;;;;;1.77;1.35;;;;;;;;;;4928126;28;20472;-88
2022/09/06 14:31:29;;;;;;;2.60;1.40;;;;;;;;;;4932640;28;20521;-86
2022/09/06 14:33:55;;;;;;;3.88;1.30;;;;;;;;;;4938152;28;20054;-88
2022/09/06 14:36:25;;;;;;;2.72;1.42;;;;;;;;;;4951384;28;20043;-88
2022/09/06 14:38:51;;;;;;;4.60;1.40;;;;;;;;;;4943018;28;20564;-87
2022/09/06 14:41:23;;;;;;;4.15;1.40;;;;;;;;;;4935149;28;20035;-88
2022/09/06 14:43:51;;;;;;;2.45;1.30;;;;;;;;;;4935977;28;20134;-87
2022/09/06 14:46:18;;;;;;;3.22;1.40;;;;;;;;;;4943985;28;20043;-92
2022/09/06 14:48:45;;;;;;;2.22;1.27;;;;;;;;;;4937611;28;20040;-91
2022/09/06 14:51:25;;;;;;;1.25;1.15;;;;;;;;;;4937563;28;20130;-92
2022/09/06 15:01:25;;;;;;;2.60;1.50;;;;;;;;;;4925239;29;20062;-93
2022/09/06 15:03:54;;;;;;;2.90;1.40;;;;;;;;;;4906719;29;20040;-93
2022/09/06 15:06:24;;;;;;;2.85;1.30;;;;;;;;;;4930126;28;20042;-93